Aviation Digital Data Service (ADDS)

Output produced by METARs form (0228 UTC 25 July 2016)
found at http://aviationweather.gov/adds/metars/
 
KSLK 242320Z 2500/2524 00000KT P6SM SCT250 
     FM250200 00000KT P6SM BKN150 BKN250 
     FM251400 22007KT P6SM SCT090 BKN200 
     FM251900 23008KT P6SM VCSH SCT035 BKN060 
     FM252200 23007KT P6SM SCT045 BKN070